sensor_id;sensor_type;location;lat;lon;timestamp;temperature;humidity
13673;DHT22;6909;52.202;9.876;2023-07-30T09:19:55;24.00;1.00
13673;DHT22;6909;52.202;9.876;2023-07-30T09:22:25;23.60;1.00
13673;DHT22;6909;52.202;9.876;2023-07-30T09:24:52;23.40;1.00
13673;DHT22;6909;52.202;9.876;2023-07-30T09:27:20;23.20;1.00
13673;DHT22;6909;52.202;9.876;2023-07-30T09:29:51;23.10;1.00
13673;DHT22;6909;52.202;9.876;2023-07-30T09:32:18;22.80;1.00
13673;DHT22;6909;52.202;9.876;2023-07-30T09:34:45;22.80;1.00
13673;DHT22;6909;52.202;9.876;2023-07-30T09:37:14;22.90;1.00
13673;DHT22;6909;52.202;9.876;2023-07-30T09:39:42;22.50;1.00
13673;DHT22;6909;52.202;9.876;2023-07-30T09:42:09;22.30;1.00
13673;DHT22;6909;52.202;9.876;2023-07-30T09:44:37;22.80;1.00
13673;DHT22;6909;52.202;9.876;2023-07-30T09:47:05;22.90;1.00
13673;DHT22;6909;52.202;9.876;2023-07-30T09:49:32;22.60;1.00
13673;DHT22;6909;52.202;9.876;2023-07-30T09:51:58;22.70;1.00
13673;DHT22;6909;52.202;9.876;2023-07-30T09:54:27;22.50;1.00
13673;DHT22;6909;52.202;9.876;2023-07-30T09:56:54;22.30;1.00
13673;DHT22;6909;52.202;9.876;2023-07-30T09:59:21;22.40;1.00
13673;DHT22;6909;52.202;9.876;2023-07-30T10:01:48;22.60;1.00
13673;DHT22;6909;52.202;9.876;2023-07-30T10:04:18;22.40;1.00
13673;DHT22;6909;52.202;9.876;2023-07-30T10:06:49;21.90;1.00
13673;DHT22;6909;52.202;9.876;2023-07-30T10:09:19;21.70;1.00
13673;DHT22;6909;52.202;9.876;2023-07-30T10:11:51;21.50;1.00
13673;DHT22;6909;52.202;9.876;2023-07-30T10:14:21;21.60;1.00
13673;DHT22;6909;52.202;9.876;2023-07-30T10:16:50;21.30;1.00
13673;DHT22;6909;52.202;9.876;2023-07-30T10:19:17;21.00;1.00
13673;DHT22;6909;52.202;9.876;2023-07-30T10:21:48;21.10;1.00
13673;DHT22;6909;52.202;9.876;2023-07-30T10:24:15;21.20;1.00
13673;DHT22;6909;52.202;9.876;2023-07-30T10:26:41;21.00;1.00
13673;DHT22;6909;52.202;9.876;2023-07-30T10:29:14;20.90;1.00
13673;DHT22;6909;52.202;9.876;2023-07-30T10:31:42;20.90;1.00
13673;DHT22;6909;52.202;9.876;2023-07-30T10:34:10;20.80;1.00
13673;DHT22;6909;52.202;9.876;2023-07-30T10:36:42;20.60;1.00
13673;DHT22;6909;52.202;9.876;2023-07-30T10:39:14;20.50;1.00
13673;DHT22;6909;52.202;9.876;2023-07-30T10:41:43;20.60;1.00
13673;DHT22;6909;52.202;9.876;2023-07-30T10:44:22;20.50;1.00
13673;DHT22;6909;52.202;9.876;2023-07-30T10:46:49;20.30;1.00
13673;DHT22;6909;52.202;9.876;2023-07-30T10:49:16;20.20;1.00
13673;DHT22;6909;52.202;9.876;2023-07-30T10:51:43;20.00;1.00
13673;DHT22;6909;52.202;9.876;2023-07-30T10:54:10;20.00;1.00
13673;DHT22;6909;52.202;9.876;2023-07-30T10:56:37;20.00;1.00
13673;DHT22;6909;52.202;9.876;2023-07-30T10:59:05;19.90;1.00
13673;DHT22;6909;52.202;9.876;2023-07-30T11:01:36;20.00;1.00
13673;DHT22;6909;52.202;9.876;2023-07-30T11:04:06;19.90;1.00
13673;DHT22;6909;52.202;9.876;2023-07-30T11:06:33;20.10;19.60
13673;DHT22;6909;52.202;9.876;2023-07-30T11:08:59;20.50;18.80
13673;DHT22;6909;52.202;9.876;2023-07-30T11:11:26;20.70;1.00
13673;DHT22;6909;52.202;9.876;2023-07-30T11:13:54;20.80;1.00
13673;DHT22;6909;52.202;9.876;2023-07-30T11:16:20;20.90;1.00
13673;DHT22;6909;52.202;9.876;2023-07-30T11:18:49;21.10;1.00
13673;DHT22;6909;52.202;9.876;2023-07-30T11:21:17;20.80;1.00
13673;DHT22;6909;52.202;9.876;2023-07-30T11:23:45;20.70;1.00
13673;DHT22;6909;52.202;9.876;2023-07-30T11:26:14;20.80;1.00
13673;DHT22;6909;52.202;9.876;2023-07-30T11:28:42;21.10;1.00
13673;DHT22;6909;52.202;9.876;2023-07-30T11:31:10;21.30;1.00
13673;DHT22;6909;52.202;9.876;2023-07-30T11:33:39;21.70;1.00
13673;DHT22;6909;52.202;9.876;2023-07-30T11:36:10;21.90;1.00
13673;DHT22;6909;52.202;9.876;2023-07-30T11:38:38;22.10;1.00
13673;DHT22;6909;52.202;9.876;2023-07-30T11:41:06;21.50;1.00
13673;DHT22;6909;52.202;9.876;2023-07-30T11:43:36;21.50;1.00
13673;DHT22;6909;52.202;9.876;2023-07-30T11:46:14;21.30;1.00
13673;DHT22;6909;52.202;9.876;2023-07-30T11:48:43;21.40;1.00
13673;DHT22;6909;52.202;9.876;2023-07-30T11:51:21;21.70;1.00
13673;DHT22;6909;52.202;9.876;2023-07-30T11:53:51;22.00;1.00
13673;DHT22;6909;52.202;9.876;2023-07-30T11:56:20;22.40;1.00
13673;DHT22;6909;52.202;9.876;2023-07-30T11:58:47;22.60;1.00
13673;DHT22;6909;52.202;9.876;2023-07-30T12:01:15;22.20;1.00
13673;DHT22;6909;52.202;9.876;2023-07-30T12:03:42;21.90;1.00
13673;DHT22;6909;52.202;9.876;2023-07-30T12:06:09;22.30;1.00
13673;DHT22;6909;52.202;9.876;2023-07-30T12:08:38;22.50;1.00
13673;DHT22;6909;52.202;9.876;2023-07-30T12:11:05;22.90;1.00
13673;DHT22;6909;52.202;9.876;2023-07-30T12:13:32;23.10;1.00
13673;DHT22;6909;52.202;9.876;2023-07-30T12:16:00;23.30;1.00
13673;DHT22;6909;52.202;9.876;2023-07-30T12:18:27;23.50;1.00
13673;DHT22;6909;52.202;9.876;2023-07-30T12:20:54;23.50;1.00
13673;DHT22;6909;52.202;9.876;2023-07-30T12:23:21;23.20;1.00
13673;DHT22;6909;52.202;9.876;2023-07-30T12:25:51;22.70;1.00
13673;DHT22;6909;52.202;9.876;2023-07-30T12:28:18;22.70;1.00
13673;DHT22;6909;52.202;9.876;2023-07-30T12:30:46;22.20;1.00
13673;DHT22;6909;52.202;9.876;2023-07-30T12:33:12;22.50;1.00
13673;DHT22;6909;52.202;9.876;2023-07-30T12:35:39;22.60;1.00
13673;DHT22;6909;52.202;9.876;2023-07-30T12:38:06;22.80;1.00
13673;DHT22;6909;52.202;9.876;2023-07-30T12:40:32;23.00;1.00
13673;DHT22;6909;52.202;9.876;2023-07-30T12:43:02;23.00;1.00
13673;DHT22;6909;52.202;9.876;2023-07-30T12:45:29;23.30;1.00
13673;DHT22;6909;52.202;9.876;2023-07-30T12:47:56;23.20;1.00
13673;DHT22;6909;52.202;9.876;2023-07-30T12:50:23;22.80;1.00
13673;DHT22;6909;52.202;9.876;2023-07-30T12:52:50;22.60;1.00
13673;DHT22;6909;52.202;9.876;2023-07-30T12:55:17;22.50;1.00
13673;DHT22;6909;52.202;9.876;2023-07-30T12:57:44;22.70;1.00
13673;DHT22;6909;52.202;9.876;2023-07-30T13:00:13;22.50;1.00
13673;DHT22;6909;52.202;9.876;2023-07-30T13:02:39;22.60;1.00
13673;DHT22;6909;52.202;9.876;2023-07-30T13:05:06;22.30;1.00
13673;DHT22;6909;52.202;9.876;2023-07-30T13:07:33;22.40;1.00
13673;DHT22;6909;52.202;9.876;2023-07-30T13:10:07;22.10;1.00
13673;DHT22;6909;52.202;9.876;2023-07-30T13:12:35;22.20;1.00
13673;DHT22;6909;52.202;9.876;2023-07-30T13:15:02;22.60;1.00
13673;DHT22;6909;52.202;9.876;2023-07-30T13:17:30;22.70;1.00
13673;DHT22;6909;52.202;9.876;2023-07-30T13:19:58;22.60;1.00
13673;DHT22;6909;52.202;9.876;2023-07-30T13:22:25;23.00;1.00
13673;DHT22;6909;52.202;9.876;2023-07-30T13:24:51;23.00;1.00
13673;DHT22;6909;52.202;9.876;2023-07-30T13:27:18;23.20;1.00
13673;DHT22;6909;52.202;9.876;2023-07-30T13:29:45;23.10;1.00
13673;DHT22;6909;52.202;9.876;2023-07-30T13:32:13;23.00;1.00
13673;DHT22;6909;52.202;9.876;2023-07-30T13:34:41;22.90;1.00
13673;DHT22;6909;52.202;9.876;2023-07-30T13:37:08;23.10;1.00
13673;DHT22;6909;52.202;9.876;2023-07-30T13:39:35;23.20;1.00
13673;DHT22;6909;52.202;9.876;2023-07-30T13:42:01;23.00;1.00
13673;DHT22;6909;52.202;9.876;2023-07-30T13:44:28;23.20;1.00
13673;DHT22;6909;52.202;9.876;2023-07-30T13:46:55;23.20;1.00
13673;DHT22;6909;52.202;9.876;2023-07-30T13:49:21;23.40;1.00
13673;DHT22;6909;52.202;9.876;2023-07-30T13:51:49;23.10;1.00
13673;DHT22;6909;52.202;9.876;2023-07-30T13:54:16;23.20;1.00
13673;DHT22;6909;52.202;9.876;2023-07-30T13:56:43;23.00;1.00
13673;DHT22;6909;52.202;9.876;2023-07-30T13:59:09;23.00;1.00
13673;DHT22;6909;52.202;9.876;2023-07-30T14:01:36;23.00;1.00
13673;DHT22;6909;52.202;9.876;2023-07-30T14:04:03;22.90;1.00
13673;DHT22;6909;52.202;9.876;2023-07-30T14:06:30;22.70;1.00
13673;DHT22;6909;52.202;9.876;2023-07-30T14:08:58;22.50;1.00
13673;DHT22;6909;52.202;9.876;2023-07-30T14:11:26;22.70;1.00
13673;DHT22;6909;52.202;9.876;2023-07-30T14:13:53;22.90;1.00
13673;DHT22;6909;52.202;9.876;2023-07-30T14:16:20;22.80;1.00
13673;DHT22;6909;52.202;9.876;2023-07-30T14:18:46;23.00;1.00
13673;DHT22;6909;52.202;9.876;2023-07-30T14:21:13;23.00;1.00
13673;DHT22;6909;52.202;9.876;2023-07-30T14:23:40;23.10;1.00
13673;DHT22;6909;52.202;9.876;2023-07-30T14:26:08;23.00;1.00
13673;DHT22;6909;52.202;9.876;2023-07-30T14:28:34;23.10;1.00
13673;DHT22;6909;52.202;9.876;2023-07-30T14:31:01;23.40;1.00
13673;DHT22;6909;52.202;9.876;2023-07-30T14:33:28;23.20;1.00
13673;DHT22;6909;52.202;9.876;2023-07-30T14:35:55;22.70;1.00
13673;DHT22;6909;52.202;9.876;2023-07-30T14:38:22;22.50;1.00
13673;DHT22;6909;52.202;9.876;2023-07-30T14:40:48;22.40;1.00
13673;DHT22;6909;52.202;9.876;2023-07-30T14:43:16;22.40;1.00
13673;DHT22;6909;52.202;9.876;2023-07-30T14:45:43;22.50;1.00
13673;DHT22;6909;52.202;9.876;2023-07-30T14:48:10;22.50;1.00
13673;DHT22;6909;52.202;9.876;2023-07-30T14:50:36;22.60;1.00
13673;DHT22;6909;52.202;9.876;2023-07-30T14:53:03;22.40;1.00
13673;DHT22;6909;52.202;9.876;2023-07-30T14:55:30;21.90;1.00
13673;DHT22;6909;52.202;9.876;2023-07-30T14:57:57;21.90;1.00
13673;DHT22;6909;52.202;9.876;2023-07-30T15:00:25;21.70;1.00
13673;DHT22;6909;52.202;9.876;2023-07-30T15:02:51;21.60;1.00
13673;DHT22;6909;52.202;9.876;2023-07-30T15:05:19;21.20;1.00
13673;DHT22;6909;52.202;9.876;2023-07-30T15:07:45;21.00;1.00
13673;DHT22;6909;52.202;9.876;2023-07-30T15:10:13;20.70;1.00
13673;DHT22;6909;52.202;9.876;2023-07-30T15:12:41;20.70;1.00
13673;DHT22;6909;52.202;9.876;2023-07-30T15:15:09;20.40;1.00
13673;DHT22;6909;52.202;9.876;2023-07-30T15:17:37;20.20;1.00
13673;DHT22;6909;52.202;9.876;2023-07-30T15:20:05;20.20;1.00
13673;DHT22;6909;52.202;9.876;2023-07-30T15:22:32;20.20;1.00
13673;DHT22;6909;52.202;9.876;2023-07-30T15:24:58;20.10;1.00
13673;DHT22;6909;52.202;9.876;2023-07-30T15:27:25;20.20;1.00
13673;DHT22;6909;52.202;9.876;2023-07-30T15:29:52;20.20;1.00
13673;DHT22;6909;52.202;9.876;2023-07-30T15:32:19;20.10;1.00
13673;DHT22;6909;52.202;9.876;2023-07-30T15:34:47;20.10;1.00
13673;DHT22;6909;52.202;9.876;2023-07-30T15:37:13;20.20;1.00
13673;DHT22;6909;52.202;9.876;2023-07-30T15:39:40;20.20;1.00
13673;DHT22;6909;52.202;9.876;2023-07-30T15:42:07;20.30;1.00
13673;DHT22;6909;52.202;9.876;2023-07-30T15:44:34;20.20;1.00
13673;DHT22;6909;52.202;9.876;2023-07-30T15:47:01;20.40;1.00
13673;DHT22;6909;52.202;9.876;2023-07-30T15:49:28;20.50;1.00
13673;DHT22;6909;52.202;9.876;2023-07-30T15:51:56;20.30;1.00
13673;DHT22;6909;52.202;9.876;2023-07-30T15:54:33;20.30;1.00
13673;DHT22;6909;52.202;9.876;2023-07-30T15:57:00;20.30;1.00
13673;DHT22;6909;52.202;9.876;2023-07-30T15:59:28;20.50;1.00
13673;DHT22;6909;52.202;9.876;2023-07-30T16:01:54;20.80;1.00
13673;DHT22;6909;52.202;9.876;2023-07-30T16:04:21;21.00;1.00
13673;DHT22;6909;52.202;9.876;2023-07-30T16:06:48;21.00;1.00
13673;DHT22;6909;52.202;9.876;2023-07-30T16:09:16;21.10;1.00
13673;DHT22;6909;52.202;9.876;2023-07-30T16:11:43;21.10;1.00
13673;DHT22;6909;52.202;9.876;2023-07-30T16:14:10;21.00;1.00
13673;DHT22;6909;52.202;9.876;2023-07-30T16:16:37;20.90;1.00
13673;DHT22;6909;52.202;9.876;2023-07-30T16:19:05;20.80;1.00
13673;DHT22;6909;52.202;9.876;2023-07-30T16:21:33;20.70;1.00
13673;DHT22;6909;52.202;9.876;2023-07-30T16:24:00;20.70;1.00
13673;DHT22;6909;52.202;9.876;2023-07-30T16:26:28;20.70;1.00
13673;DHT22;6909;52.202;9.876;2023-07-30T16:28:55;20.70;1.00
13673;DHT22;6909;52.202;9.876;2023-07-30T16:31:22;20.70;1.00
13673;DHT22;6909;52.202;9.876;2023-07-30T16:33:49;20.80;1.00
13673;DHT22;6909;52.202;9.876;2023-07-30T16:36:15;20.80;1.00
13673;DHT22;6909;52.202;9.876;2023-07-30T16:38:42;20.80;1.00
13673;DHT22;6909;52.202;9.876;2023-07-30T16:41:09;20.90;1.00
13673;DHT22;6909;52.202;9.876;2023-07-30T16:43:37;20.90;1.00
13673;DHT22;6909;52.202;9.876;2023-07-30T16:46:04;21.10;1.00
13673;DHT22;6909;52.202;9.876;2023-07-30T16:48:31;21.10;1.00
13673;DHT22;6909;52.202;9.876;2023-07-30T16:50:58;21.00;1.00
13673;DHT22;6909;52.202;9.876;2023-07-30T16:53:25;21.00;1.00
13673;DHT22;6909;52.202;9.876;2023-07-30T16:55:52;20.70;1.00
13673;DHT22;6909;52.202;9.876;2023-07-30T16:58:18;20.60;1.00
13673;DHT22;6909;52.202;9.876;2023-07-30T17:00:46;20.50;1.00
13673;DHT22;6909;52.202;9.876;2023-07-30T17:03:13;20.50;1.00
13673;DHT22;6909;52.202;9.876;2023-07-30T17:05:40;20.40;1.00
13673;DHT22;6909;52.202;9.876;2023-07-30T17:08:07;20.40;1.00
13673;DHT22;6909;52.202;9.876;2023-07-30T17:10:37;20.40;1.00
13673;DHT22;6909;52.202;9.876;2023-07-30T17:13:03;20.30;1.00
13673;DHT22;6909;52.202;9.876;2023-07-30T17:15:30;20.30;1.00
13673;DHT22;6909;52.202;9.876;2023-07-30T17:17:58;20.30;1.00
13673;DHT22;6909;52.202;9.876;2023-07-30T17:20:25;20.40;1.00
13673;DHT22;6909;52.202;9.876;2023-07-30T17:22:52;20.40;1.00
13673;DHT22;6909;52.202;9.876;2023-07-30T17:25:19;20.30;1.00
13673;DHT22;6909;52.202;9.876;2023-07-30T17:27:46;20.30;1.00
13673;DHT22;6909;52.202;9.876;2023-07-30T17:30:12;20.10;1.00
13673;DHT22;6909;52.202;9.876;2023-07-30T17:32:39;20.00;1.00
13673;DHT22;6909;52.202;9.876;2023-07-30T17:35:08;19.80;1.00
13673;DHT22;6909;52.202;9.876;2023-07-30T17:37:35;19.80;1.00
13673;DHT22;6909;52.202;9.876;2023-07-30T17:40:04;19.80;1.00
13673;DHT22;6909;52.202;9.876;2023-07-30T17:42:31;19.70;1.00
13673;DHT22;6909;52.202;9.876;2023-07-30T17:44:57;19.60;1.00
13673;DHT22;6909;52.202;9.876;2023-07-30T17:47:24;19.60;1.00
13673;DHT22;6909;52.202;9.876;2023-07-30T17:49:51;19.60;1.00
13673;DHT22;6909;52.202;9.876;2023-07-30T17:52:19;19.50;1.00
13673;DHT22;6909;52.202;9.876;2023-07-30T17:54:47;19.50;1.00
13673;DHT22;6909;52.202;9.876;2023-07-30T17:57:15;19.50;1.00
13673;DHT22;6909;52.202;9.876;2023-07-30T17:59:41;19.40;1.00
13673;DHT22;6909;52.202;9.876;2023-07-30T18:02:08;19.40;1.00
13673;DHT22;6909;52.202;9.876;2023-07-30T18:04:35;19.40;1.00
13673;DHT22;6909;52.202;9.876;2023-07-30T18:07:03;19.40;1.00
13673;DHT22;6909;52.202;9.876;2023-07-30T18:09:31;19.40;1.00
13673;DHT22;6909;52.202;9.876;2023-07-30T18:11:58;19.30;1.00
13673;DHT22;6909;52.202;9.876;2023-07-30T18:14:24;19.30;1.00
13673;DHT22;6909;52.202;9.876;2023-07-30T18:16:51;19.20;1.00
13673;DHT22;6909;52.202;9.876;2023-07-30T18:19:18;19.20;1.00
13673;DHT22;6909;52.202;9.876;2023-07-30T18:21:44;19.20;1.00
13673;DHT22;6909;52.202;9.876;2023-07-30T18:24:11;19.20;1.00
13673;DHT22;6909;52.202;9.876;2023-07-30T18:26:39;19.10;1.70
13673;DHT22;6909;52.202;9.876;2023-07-30T18:29:06;19.10;11.20
13673;DHT22;6909;52.202;9.876;2023-07-30T18:31:33;19.00;20.10
13673;DHT22;6909;52.202;9.876;2023-07-30T18:33:59;19.00;19.00
13673;DHT22;6909;52.202;9.876;2023-07-30T18:36:26;19.00;48.50
13673;DHT22;6909;52.202;9.876;2023-07-30T18:38:53;18.90;34.30
13673;DHT22;6909;52.202;9.876;2023-07-30T18:41:19;18.90;25.60
13673;DHT22;6909;52.202;9.876;2023-07-30T18:43:47;18.90;31.00
13673;DHT22;6909;52.202;9.876;2023-07-30T18:46:14;18.80;45.40
13673;DHT22;6909;52.202;9.876;2023-07-30T18:48:41;18.60;53.50
13673;DHT22;6909;52.202;9.876;2023-07-30T18:51:08;18.50;40.40
13673;DHT22;6909;52.202;9.876;2023-07-30T18:53:34;18.50;16.40
13673;DHT22;6909;52.202;9.876;2023-07-30T18:56:01;18.50;16.30
13673;DHT22;6909;52.202;9.876;2023-07-30T18:58:29;18.50;37.50
13673;DHT22;6909;52.202;9.876;2023-07-30T19:00:57;18.30;20.30
13673;DHT22;6909;52.202;9.876;2023-07-30T19:03:24;18.50;14.60
13673;DHT22;6909;52.202;9.876;2023-07-30T19:05:52;18.50;1.00
13673;DHT22;6909;52.202;9.876;2023-07-30T19:08:21;18.50;1.00
13673;DHT22;6909;52.202;9.876;2023-07-30T19:10:48;18.60;1.00
13673;DHT22;6909;52.202;9.876;2023-07-30T19:13:15;18.60;1.00
13673;DHT22;6909;52.202;9.876;2023-07-30T19:15:42;18.60;1.00
13673;DHT22;6909;52.202;9.876;2023-07-30T19:18:10;18.70;1.00
13673;DHT22;6909;52.202;9.876;2023-07-30T19:20:38;18.60;1.00
13673;DHT22;6909;52.202;9.876;2023-07-30T19:23:05;18.60;1.00
13673;DHT22;6909;52.202;9.876;2023-07-30T19:25:31;18.50;1.00
13673;DHT22;6909;52.202;9.876;2023-07-30T19:27:58;18.50;1.00
13673;DHT22;6909;52.202;9.876;2023-07-30T19:30:27;18.40;1.00
13673;DHT22;6909;52.202;9.876;2023-07-30T19:32:55;18.30;1.00
13673;DHT22;6909;52.202;9.876;2023-07-30T19:35:23;18.20;1.00
13673;DHT22;6909;52.202;9.876;2023-07-30T19:37:50;18.20;11.80
13673;DHT22;6909;52.202;9.876;2023-07-30T19:40:16;18.20;16.10
13673;DHT22;6909;52.202;9.876;2023-07-30T19:42:43;18.10;23.40
13673;DHT22;6909;52.202;9.876;2023-07-30T19:45:10;18.10;21.90
13673;DHT22;6909;52.202;9.876;2023-07-30T19:47:37;18.10;37.70
13673;DHT22;6909;52.202;9.876;2023-07-30T19:50:04;18.10;46.00
13673;DHT22;6909;52.202;9.876;2023-07-30T19:52:32;18.00;57.70
13673;DHT22;6909;52.202;9.876;2023-07-30T19:54:59;17.90;70.80
13673;DHT22;6909;52.202;9.876;2023-07-30T19:57:26;17.80;99.90
13673;DHT22;6909;52.202;9.876;2023-07-30T19:59:54;17.70;99.90
13673;DHT22;6909;52.202;9.876;2023-07-30T20:02:21;17.60;99.90
13673;DHT22;6909;52.202;9.876;2023-07-30T20:04:47;17.60;99.90
13673;DHT22;6909;52.202;9.876;2023-07-30T20:07:14;17.50;99.90
13673;DHT22;6909;52.202;9.876;2023-07-30T20:09:42;17.50;99.90
13673;DHT22;6909;52.202;9.876;2023-07-30T20:12:09;17.40;99.90
13673;DHT22;6909;52.202;9.876;2023-07-30T20:14:36;17.40;99.90
13673;DHT22;6909;52.202;9.876;2023-07-30T20:17:04;17.30;99.90
13673;DHT22;6909;52.202;9.876;2023-07-30T20:19:31;17.20;99.90
13673;DHT22;6909;52.202;9.876;2023-07-30T20:21:58;17.10;99.90
13673;DHT22;6909;52.202;9.876;2023-07-30T20:24:25;17.10;99.90
13673;DHT22;6909;52.202;9.876;2023-07-30T20:26:54;17.00;99.90
13673;DHT22;6909;52.202;9.876;2023-07-30T20:29:20;16.90;1.00
13673;DHT22;6909;52.202;9.876;2023-07-30T20:31:47;16.90;1.00
13673;DHT22;6909;52.202;9.876;2023-07-30T20:34:14;16.80;1.00
13673;DHT22;6909;52.202;9.876;2023-07-30T20:36:41;16.80;1.00
13673;DHT22;6909;52.202;9.876;2023-07-30T20:39:07;16.80;1.00
13673;DHT22;6909;52.202;9.876;2023-07-30T20:41:34;16.80;1.00
13673;DHT22;6909;52.202;9.876;2023-07-30T20:44:02;16.90;1.00
13673;DHT22;6909;52.202;9.876;2023-07-30T20:46:29;16.90;1.00
13673;DHT22;6909;52.202;9.876;2023-07-30T20:48:56;16.90;1.00
13673;DHT22;6909;52.202;9.876;2023-07-30T20:51:22;16.80;1.00
13673;DHT22;6909;52.202;9.876;2023-07-30T20:53:49;16.80;1.00
13673;DHT22;6909;52.202;9.876;2023-07-30T20:56:16;16.90;1.00
13673;DHT22;6909;52.202;9.876;2023-07-30T20:58:42;16.90;1.00
13673;DHT22;6909;52.202;9.876;2023-07-30T21:01:11;16.90;1.00
13673;DHT22;6909;52.202;9.876;2023-07-30T21:03:37;16.80;1.00
13673;DHT22;6909;52.202;9.876;2023-07-30T21:06:04;16.80;77.00
13673;DHT22;6909;52.202;9.876;2023-07-30T21:08:31;16.80;99.90
13673;DHT22;6909;52.202;9.876;2023-07-30T21:10:58;16.80;99.90
13673;DHT22;6909;52.202;9.876;2023-07-30T21:13:25;16.80;1.00
13673;DHT22;6909;52.202;9.876;2023-07-30T21:15:51;16.70;1.00
13673;DHT22;6909;52.202;9.876;2023-07-30T21:18:19;16.70;1.00
13673;DHT22;6909;52.202;9.876;2023-07-30T21:20:46;16.70;1.00
13673;DHT22;6909;52.202;9.876;2023-07-30T21:23:13;16.70;1.00
13673;DHT22;6909;52.202;9.876;2023-07-30T21:25:40;16.70;99.90
13673;DHT22;6909;52.202;9.876;2023-07-30T21:28:07;16.70;99.90
13673;DHT22;6909;52.202;9.876;2023-07-30T21:30:33;16.70;99.90
13673;DHT22;6909;52.202;9.876;2023-07-30T21:33:00;16.80;1.00
13673;DHT22;6909;52.202;9.876;2023-07-30T21:35:28;16.80;99.90
13673;DHT22;6909;52.202;9.876;2023-07-30T21:37:55;16.90;99.90
13673;DHT22;6909;52.202;9.876;2023-07-30T21:40:22;16.90;99.90
13673;DHT22;6909;52.202;9.876;2023-07-30T21:42:48;16.90;99.90
13673;DHT22;6909;52.202;9.876;2023-07-30T21:45:15;16.90;99.90
13673;DHT22;6909;52.202;9.876;2023-07-30T21:47:42;16.90;99.90
13673;DHT22;6909;52.202;9.876;2023-07-30T21:50:09;16.80;99.90
13673;DHT22;6909;52.202;9.876;2023-07-30T21:52:37;16.70;99.90
13673;DHT22;6909;52.202;9.876;2023-07-30T21:55:07;16.70;99.90
13673;DHT22;6909;52.202;9.876;2023-07-30T21:57:33;16.70;1.00
13673;DHT22;6909;52.202;9.876;2023-07-30T22:00:00;16.70;1.00
13673;DHT22;6909;52.202;9.876;2023-07-30T22:02:27;16.70;1.00
13673;DHT22;6909;52.202;9.876;2023-07-30T22:04:54;16.70;1.00
13673;DHT22;6909;52.202;9.876;2023-07-30T22:07:20;16.70;1.00
13673;DHT22;6909;52.202;9.876;2023-07-30T22:09:48;16.70;99.90
13673;DHT22;6909;52.202;9.876;2023-07-30T22:12:16;16.80;74.10
13673;DHT22;6909;52.202;9.876;2023-07-30T22:14:43;16.80;1.00
13673;DHT22;6909;52.202;9.876;2023-07-30T22:17:10;16.90;1.00
13673;DHT22;6909;52.202;9.876;2023-07-30T22:19:37;16.90;1.00
13673;DHT22;6909;52.202;9.876;2023-07-30T22:22:04;16.80;1.00
13673;DHT22;6909;52.202;9.876;2023-07-30T22:24:31;16.70;99.90
13673;DHT22;6909;52.202;9.876;2023-07-30T22:26:59;16.60;1.00
13673;DHT22;6909;52.202;9.876;2023-07-30T22:29:25;16.30;99.90
13673;DHT22;6909;52.202;9.876;2023-07-30T22:31:52;16.10;41.10
13673;DHT22;6909;52.202;9.876;2023-07-30T22:34:19;15.90;99.90
13673;DHT22;6909;52.202;9.876;2023-07-30T22:36:45;15.80;50.60
13673;DHT22;6909;52.202;9.876;2023-07-30T22:39:12;15.70;1.00
13673;DHT22;6909;52.202;9.876;2023-07-30T22:41:39;15.80;1.00
13673;DHT22;6909;52.202;9.876;2023-07-30T22:44:07;15.70;1.00
13673;DHT22;6909;52.202;9.876;2023-07-30T22:46:34;15.70;40.80
13673;DHT22;6909;52.202;9.876;2023-07-30T22:49:00;15.70;99.90
13673;DHT22;6909;52.202;9.876;2023-07-30T22:51:27;15.60;99.90
13673;DHT22;6909;52.202;9.876;2023-07-30T22:53:54;15.60;1.00
13673;DHT22;6909;52.202;9.876;2023-07-30T22:56:20;15.60;1.00
13673;DHT22;6909;52.202;9.876;2023-07-30T22:58:47;15.60;1.00
13673;DHT22;6909;52.202;9.876;2023-07-30T23:01:15;15.50;1.00
13673;DHT22;6909;52.202;9.876;2023-07-30T23:03:42;15.50;1.00
13673;DHT22;6909;52.202;9.876;2023-07-30T23:06:09;15.50;1.00
13673;DHT22;6909;52.202;9.876;2023-07-30T23:08:36;15.50;1.00
13673;DHT22;6909;52.202;9.876;2023-07-30T23:11:02;15.60;1.00
13673;DHT22;6909;52.202;9.876;2023-07-30T23:13:29;15.60;1.00
13673;DHT22;6909;52.202;9.876;2023-07-30T23:15:56;15.60;1.00
13673;DHT22;6909;52.202;9.876;2023-07-30T23:18:24;15.60;1.00
13673;DHT22;6909;52.202;9.876;2023-07-30T23:20:51;15.60;1.00
13673;DHT22;6909;52.202;9.876;2023-07-30T23:23:18;15.70;1.00
13673;DHT22;6909;52.202;9.876;2023-07-30T23:25:44;15.70;1.00
13673;DHT22;6909;52.202;9.876;2023-07-30T23:28:11;15.80;1.00
13673;DHT22;6909;52.202;9.876;2023-07-30T23:30:38;15.70;1.00
13673;DHT22;6909;52.202;9.876;2023-07-30T23:33:05;15.70;1.00
13673;DHT22;6909;52.202;9.876;2023-07-30T23:35:33;15.80;1.00
13673;DHT22;6909;52.202;9.876;2023-07-30T23:38:00;15.80;1.00
13673;DHT22;6909;52.202;9.876;2023-07-30T23:40:26;15.80;1.00
13673;DHT22;6909;52.202;9.876;2023-07-30T23:42:53;15.80;1.00
13673;DHT22;6909;52.202;9.876;2023-07-30T23:45:20;15.90;1.00
13673;DHT22;6909;52.202;9.876;2023-07-30T23:47:47;15.80;1.00
13673;DHT22;6909;52.202;9.876;2023-07-30T23:50:14;15.80;1.00
13673;DHT22;6909;52.202;9.876;2023-07-30T23:52:42;15.70;1.00
13673;DHT22;6909;52.202;9.876;2023-07-30T23:55:09;15.70;1.00
13673;DHT22;6909;52.202;9.876;2023-07-30T23:57:36;15.70;1.00
